Terminal Aerodrome Forecast
Issued by NWS

Home | Current Version | Previous Version | Text Only | Print | Product List | Glossary On
Versions: 1 2 3 4 5 6 7 8 9 10 11 12 13 14 15 16 17 18 19 20 21 22 23 24 25 26 27 28 29 30 31 32 33 34 35 36
000
FTUS45 KGJT 211942 AAB
TAFTEX
TAF AMD
KTEX 211942Z 2120/2218 VRB03KT P6SM VCSH SCT040 OVC050
      TEMPO 2120/2122 -SHRA SCT015 BKN025 OVC040
     FM220000 VRB03KT P6SM OVC080
     FM221400 VRB03KT P6SM BKN080=

USA.gov is the U.S. government's official web portal to all federal, state and local government web resources and services.